Archival Weather

Al Ahsa

Al Ahsa, Saudi Arabia (OEAH)

Report from: Friday, May 26, 2023 12:00 AM +03
Current time: Friday, July 19, 2024 5:23 AM +03

Current weather – Weather history – Daily summaries
Weather forecast

Temperature32.0°C (89.6°F)
Heat index30.0°C (86.1°F)
Dew point7.0°C (44.6°F)
Winds 3 kts (1.5 m/s, 3.5 mph) North (360°)
Clouds Sky clear
Altimeter29.74 in.Hg (1007 mB)
Relative humidity21 %
Density altitude2,297 ft. (700 m)
Remarks Ceiling and visibility OK
No significant changes expected in the next two hours
Flight conditions Visual Meteorological Conditions
Raw dataOEAH 252100Z 36003KT CAVOK 32/07 Q1007 NOSIG
An error has occurred. This application may no longer respond until reloaded. Reload 🗙